createdAt,value
2024-05-09T00:00:42.952Z,3.83
2024-05-09T00:03:11.612Z,3.67
2024-05-09T00:05:44.454Z,3.80
2024-05-09T00:08:12.454Z,3.70
2024-05-09T00:10:40.917Z,3.67
2024-05-09T00:13:10.616Z,3.60
2024-05-09T00:15:38.840Z,3.85
2024-05-09T00:18:07.478Z,4.22
2024-05-09T00:20:39.596Z,4.10
2024-05-09T00:23:12.608Z,4.38
2024-05-09T00:25:42.862Z,4.20
2024-05-09T00:28:11.495Z,4.30
2024-05-09T00:30:38.821Z,5.18
2024-05-09T00:33:07.681Z,4.75
2024-05-09T00:35:36.342Z,5.30
2024-05-09T00:38:04.601Z,4.65
2024-05-09T00:40:40.437Z,5.13
2024-05-09T00:43:10.396Z,4.65
2024-05-09T00:45:37.772Z,4.85
2024-05-09T00:48:09.433Z,4.53
2024-05-09T00:50:41.186Z,4.32
2024-05-09T00:53:12.952Z,5.15
2024-05-09T00:55:44.742Z,4.93
2024-05-09T00:58:16.519Z,4.90
2024-05-09T01:00:44.753Z,4.80
2024-05-09T01:03:13.727Z,5.22
2024-05-09T01:05:43.436Z,5.28
2024-05-09T01:08:12.425Z,4.88
2024-05-09T01:10:44.975Z,5.20
2024-05-09T01:13:13.451Z,4.60
2024-05-09T01:15:40.705Z,4.90
2024-05-09T01:18:12.080Z,4.65
2024-05-09T01:20:43.421Z,5.07
2024-05-09T01:23:16.224Z,4.68
2024-05-09T01:25:45.603Z,4.35
2024-05-09T01:28:13.601Z,4.35
2024-05-09T01:30:40.797Z,4.15
2024-05-09T01:33:10.204Z,4.00
2024-05-09T01:35:41.464Z,4.35
2024-05-09T01:38:12.121Z,3.80
2024-05-09T01:40:43.116Z,4.18
2024-05-09T01:43:11.727Z,4.20
2024-05-09T01:45:39.704Z,4.38
2024-05-09T01:48:08.453Z,3.95
2024-05-09T01:50:40.137Z,4.10
2024-05-09T01:53:11.167Z,3.58
2024-05-09T01:55:41.285Z,4.10
2024-05-09T01:58:09.481Z,3.80
2024-05-09T02:00:41.017Z,3.85
2024-05-09T02:03:14.524Z,3.70
2024-05-09T02:05:44.720Z,3.97
2024-05-09T02:08:17.570Z,3.78
2024-05-09T02:10:49.691Z,3.85
2024-05-09T02:13:17.885Z,3.65
2024-05-09T02:15:45.322Z,4.15
2024-05-09T02:18:13.470Z,3.92
2024-05-09T02:20:43.344Z,3.72
2024-05-09T02:23:11.542Z,3.20
2024-05-09T02:25:39.098Z,3.30
2024-05-09T02:28:09.086Z,3.55
2024-05-09T02:30:40.586Z,3.30
2024-05-09T02:33:12.109Z,3.10
2024-05-09T02:35:43.319Z,3.30
2024-05-09T02:38:11.872Z,3.45
2024-05-09T02:40:40.197Z,3.40
2024-05-09T02:43:12.923Z,3.28
2024-05-09T02:45:40.924Z,3.30
2024-05-09T02:48:11.875Z,3.20
2024-05-09T02:50:44.636Z,3.17
2024-05-09T02:53:13.521Z,3.20
2024-05-09T02:55:42.429Z,3.30
2024-05-09T02:58:12.581Z,3.63
2024-05-09T03:00:42.097Z,3.60
2024-05-09T03:05:43.817Z,3.53
2024-05-09T03:08:11.435Z,3.30
2024-05-09T03:10:39.549Z,3.03
2024-05-09T03:13:07.459Z,3.20
2024-05-09T03:15:37.365Z,3.78
2024-05-09T03:18:06.400Z,3.33
2024-05-09T03:20:35.894Z,3.30
2024-05-09T03:23:05.191Z,3.40
2024-05-09T03:25:33.420Z,3.53
2024-05-09T03:28:00.744Z,3.13
2024-05-09T03:30:38.856Z,3.70
2024-05-09T03:33:17.407Z,3.30
2024-05-09T03:35:46.817Z,3.38
2024-05-09T03:38:14.773Z,3.33
2024-05-09T03:40:45.885Z,2.92
2024-05-09T03:43:13.410Z,3.35
2024-05-09T03:45:40.793Z,3.67
2024-05-09T03:48:08.905Z,3.45
2024-05-09T03:50:39.268Z,3.20
2024-05-09T03:53:12.306Z,3.40
2024-05-09T03:55:40.004Z,3.38
2024-05-09T03:58:12.694Z,3.40
2024-05-09T04:00:40.451Z,3.67
2024-05-09T04:03:11.026Z,3.33
2024-05-09T04:05:44.568Z,3.17
2024-05-09T04:08:14.560Z,3.50
2024-05-09T04:10:42.106Z,3.60
2024-05-09T04:13:10.418Z,4.03
2024-05-09T04:15:38.332Z,3.50
2024-05-09T04:18:06.062Z,3.42
2024-05-09T04:20:38.648Z,3.72
2024-05-09T04:23:12.828Z,3.40
2024-05-09T04:25:43.914Z,3.20
2024-05-09T04:28:11.476Z,3.75
2024-05-09T04:30:41.109Z,3.53
2024-05-09T04:33:12.212Z,3.33
2024-05-09T04:35:44.386Z,3.90
2024-05-09T04:38:15.300Z,4.28
2024-05-09T04:40:43.299Z,3.50
2024-05-09T04:43:16.212Z,3.78
2024-05-09T04:45:43.581Z,3.75
2024-05-09T04:48:11.306Z,3.60
2024-05-09T04:50:39.760Z,3.63
2024-05-09T05:03:00.329Z,3.60
2024-05-09T05:05:30.930Z,3.70
2024-05-09T05:07:58.947Z,3.72
2024-05-09T05:10:33.749Z,3.72
2024-05-09T05:13:20.017Z,3.85
2024-05-09T05:15:51.176Z,4.32
2024-05-09T05:18:22.328Z,3.85
2024-05-09T05:20:49.894Z,3.75
2024-05-09T05:23:22.244Z,3.80
2024-05-09T05:25:53.036Z,3.65
2024-05-09T05:28:21.555Z,3.17
2024-05-09T05:30:48.732Z,3.42
2024-05-09T05:33:19.129Z,3.22
2024-05-09T05:35:49.681Z,3.33
2024-05-09T05:38:16.931Z,3.75
2024-05-09T05:40:44.353Z,4.28
2024-05-09T05:43:17.838Z,3.58
2024-05-09T05:45:45.453Z,3.50
2024-05-09T05:48:17.832Z,3.03
2024-05-09T05:50:48.283Z,3.03
2024-05-09T05:53:16.872Z,3.13
2024-05-09T05:55:44.391Z,3.33
2024-05-09T05:58:12.503Z,3.20
2024-05-09T06:00:42.137Z,2.90
2024-05-09T06:03:12.729Z,3.33
2024-05-09T06:05:43.448Z,2.97
2024-05-09T06:08:14.350Z,2.78
2024-05-09T06:10:42.548Z,2.70
2024-05-09T06:13:11.648Z,2.88
2024-05-09T06:15:40.298Z,3.10
2024-05-09T06:18:08.877Z,2.67
2024-05-09T06:20:38.236Z,2.78
2024-05-09T06:23:06.923Z,3.30
2024-05-09T06:25:37.064Z,2.63
2024-05-09T06:28:05.347Z,3.60
2024-05-09T06:30:39.237Z,2.95
2024-05-09T06:33:11.851Z,2.67
2024-05-09T06:35:41.291Z,3.08
2024-05-09T06:38:09.543Z,2.92
2024-05-09T06:40:42.565Z,2.70
2024-05-09T06:43:11.878Z,2.67
2024-05-09T06:45:39.870Z,2.85
2024-05-09T06:48:09.437Z,2.63
2024-05-09T06:50:38.624Z,3.00
2024-05-09T06:53:07.428Z,3.15
2024-05-09T06:55:34.824Z,2.67
2024-05-09T06:58:06.982Z,2.90
2024-05-09T07:00:39.341Z,2.58
2024-05-09T07:03:08.976Z,3.20
2024-05-09T07:05:36.569Z,3.10
2024-05-09T07:08:04.417Z,3.20
2024-05-09T07:10:35.177Z,3.13
2024-05-09T07:13:08.896Z,2.78
2024-05-09T07:15:36.192Z,3.10
2024-05-09T07:18:10.772Z,2.80
2024-05-09T07:20:39.084Z,2.70
2024-05-09T07:23:09.578Z,3.35
2024-05-09T07:25:36.999Z,3.10
2024-05-09T07:28:11.136Z,2.90
2024-05-09T07:30:38.339Z,2.95
2024-05-09T07:33:06.195Z,3.05
2024-05-09T07:35:34.161Z,2.88
2024-05-09T07:38:01.739Z,3.03
2024-05-09T07:40:35.521Z,2.75
2024-05-09T07:43:13.336Z,2.75
2024-05-09T07:45:50.466Z,2.92
2024-05-09T07:52:37.330Z,3.33
2024-05-09T07:53:45.685Z,3.03
2024-05-09T07:58:46.653Z,3.30
2024-05-09T08:01:13.991Z,3.65
2024-05-09T08:03:41.567Z,3.28
2024-05-09T08:06:09.037Z,3.10
2024-05-09T08:08:36.235Z,3.17
2024-05-09T08:11:03.788Z,3.47
2024-05-09T08:13:31.788Z,3.10
2024-05-09T08:16:01.647Z,2.88
2024-05-09T08:18:29.206Z,3.20
2024-05-09T08:20:56.690Z,3.03
2024-05-09T08:23:24.092Z,3.05
2024-05-09T08:25:55.205Z,3.17
2024-05-09T08:30:50.086Z,2.88
2024-05-09T08:33:20.244Z,3.20
2024-05-09T08:35:47.684Z,3.10
2024-05-09T08:38:14.917Z,3.00
2024-05-09T08:40:42.640Z,3.40
2024-05-09T08:43:12.094Z,3.20
2024-05-09T08:45:44.187Z,2.90
2024-05-09T08:48:15.480Z,2.95
2024-05-09T08:50:50.870Z,2.95
2024-05-09T08:53:19.182Z,2.75
2024-05-09T08:55:47.764Z,3.92
2024-05-09T08:58:20.686Z,3.38
2024-05-09T09:00:49.590Z,3.42
2024-05-09T09:03:22.211Z,3.13
2024-05-09T09:05:59.255Z,3.40
2024-05-09T09:08:26.551Z,3.47
2024-05-09T09:10:57.575Z,3.38
2024-05-09T09:13:25.887Z,3.10
2024-05-09T09:15:57.761Z,3.22
2024-05-09T09:18:26.631Z,2.92
2024-05-09T09:20:57.255Z,3.30
2024-05-09T09:23:27.902Z,3.30
2024-05-09T09:25:59.486Z,3.13
2024-05-09T09:28:26.668Z,4.43
2024-05-09T09:30:53.933Z,3.58
2024-05-09T09:33:21.278Z,3.10
2024-05-09T09:35:48.567Z,3.22
2024-05-09T09:38:23.272Z,3.03
2024-05-09T09:40:51.229Z,3.03
2024-05-09T09:43:22.496Z,3.33
2024-05-09T09:45:53.532Z,3.65
2024-05-09T09:48:22.919Z,3.03
2024-05-09T09:50:52.969Z,2.90
2024-05-09T09:53:23.530Z,3.33
2024-05-09T09:55:52.221Z,3.05
2024-05-09T09:58:20.191Z,2.97
2024-05-09T10:00:47.674Z,2.92
2024-05-09T10:03:15.147Z,3.00
2024-05-09T10:05:46.353Z,3.38
2024-05-09T10:08:17.819Z,3.47
2024-05-09T10:10:49.088Z,2.80
2024-05-09T10:13:16.936Z,3.00
2024-05-09T10:15:46.107Z,3.10
2024-05-09T10:18:14.003Z,3.08
2024-05-09T10:20:42.524Z,3.00
2024-05-09T10:23:26.681Z,3.30
2024-05-09T10:26:02.001Z,3.53
2024-05-09T10:28:31.838Z,2.90
2024-05-09T10:31:07.164Z,2.80
2024-05-09T10:33:46.126Z,3.30
2024-05-09T10:36:15.261Z,3.10
2024-05-09T10:38:43.904Z,3.80
2024-05-09T10:41:13.989Z,2.97
2024-05-09T10:43:42.118Z,3.10
2024-05-09T10:46:11.490Z,3.65
2024-05-09T10:48:41.554Z,3.22
2024-05-09T10:51:09.845Z,2.88
2024-05-09T10:53:44.999Z,2.67
2024-05-09T10:56:15.633Z,3.30
2024-05-09T10:58:43.151Z,3.03
2024-05-09T11:01:11.301Z,3.40
2024-05-09T11:03:40.112Z,3.03
2024-05-09T11:06:09.796Z,2.97
2024-05-09T11:08:38.740Z,2.85
2024-05-09T11:11:08.259Z,2.67
2024-05-09T11:13:40.527Z,3.33
2024-05-09T11:16:21.803Z,3.33
2024-05-09T11:18:57.067Z,2.90
2024-05-09T11:21:25.057Z,3.38
2024-05-09T11:23:52.659Z,2.92
2024-05-09T11:26:21.613Z,2.92
2024-05-09T11:28:52.362Z,2.92
2024-05-09T11:31:19.752Z,2.80
2024-05-09T11:33:47.422Z,3.05
2024-05-09T11:36:15.395Z,2.90
2024-05-09T11:38:43.272Z,2.90
2024-05-09T11:41:17.819Z,3.05
2024-05-09T11:43:45.071Z,3.00
2024-05-09T11:46:15.356Z,2.78
2024-05-09T11:48:42.859Z,2.70
2024-05-09T11:51:10.118Z,2.80
2024-05-09T11:53:37.432Z,2.97
2024-05-09T11:56:05.358Z,3.10
2024-05-09T11:58:34.772Z,3.00
2024-05-09T12:01:02.412Z,3.03
2024-05-09T12:03:32.567Z,2.88
2024-05-09T12:06:00.092Z,2.88
2024-05-09T12:08:27.778Z,2.65
2024-05-09T12:10:55.313Z,2.88
2024-05-09T12:13:22.994Z,2.97
2024-05-09T12:15:50.364Z,3.13
2024-05-09T12:18:17.665Z,2.70
2024-05-09T12:20:47.605Z,2.90
2024-05-09T12:23:14.965Z,2.65
2024-05-09T12:25:42.237Z,2.90
2024-05-09T12:28:09.801Z,3.15
2024-05-09T12:30:40.120Z,3.15
2024-05-09T12:33:09.841Z,2.90
2024-05-09T12:35:37.859Z,2.70
2024-05-09T12:38:07.857Z,3.25
2024-05-09T12:40:38.043Z,3.00
2024-05-09T12:43:07.459Z,3.03
2024-05-09T12:45:35.753Z,2.67
2024-05-09T12:48:04.612Z,2.80
2024-05-09T12:50:34.099Z,2.75
2024-05-09T12:53:03.046Z,3.03
2024-05-09T12:55:40.820Z,2.88
2024-05-09T12:58:16.078Z,2.85
2024-05-09T13:00:43.673Z,2.95
2024-05-09T13:03:11.174Z,2.88
2024-05-09T13:05:41.373Z,2.90
2024-05-09T13:08:09.404Z,2.97
2024-05-09T13:10:39.425Z,2.63
2024-05-09T13:13:06.981Z,2.95
2024-05-09T13:15:34.888Z,3.17
2024-05-09T13:18:03.797Z,3.30
2024-05-09T13:20:34.409Z,3.20
2024-05-09T13:23:05.399Z,3.15
2024-05-09T13:25:34.833Z,3.08
2024-05-09T13:28:05.646Z,3.00
2024-05-09T13:30:39.604Z,3.17
2024-05-09T13:33:11.237Z,2.63
2024-05-09T13:35:45.586Z,2.72
2024-05-09T13:38:16.803Z,3.00
2024-05-09T13:40:44.521Z,3.13
2024-05-09T13:43:14.749Z,3.17
2024-05-09T13:45:42.183Z,2.70
2024-05-09T13:48:10.350Z,2.85
2024-05-09T13:50:38.958Z,2.72
2024-05-09T13:53:07.698Z,3.00
2024-05-09T13:55:38.610Z,2.80
2024-05-09T13:58:07.260Z,2.85
2024-05-09T14:00:46.647Z,2.97
2024-05-09T14:03:19.956Z,2.70
2024-05-09T14:05:50.989Z,2.78
2024-05-09T14:08:20.099Z,2.92
2024-05-09T14:10:48.678Z,2.92
2024-05-09T14:13:16.503Z,2.85
2024-05-09T14:15:47.093Z,3.10
2024-05-09T14:18:15.111Z,3.10
2024-05-09T14:20:42.834Z,3.28
2024-05-09T14:23:10.801Z,3.22
2024-05-09T14:25:42.284Z,3.00
2024-05-09T14:28:11.643Z,3.10
2024-05-09T14:30:39.748Z,3.50
2024-05-09T14:33:10.140Z,2.97
2024-05-09T14:35:39.050Z,3.67
2024-05-09T14:38:07.538Z,3.20
2024-05-09T14:40:42.191Z,3.10
2024-05-09T14:45:40.815Z,2.90
2024-05-09T14:48:11.681Z,3.00
2024-05-09T14:50:40.557Z,2.63
2024-05-09T14:53:09.527Z,2.92
2024-05-09T14:55:39.075Z,2.90
2024-05-09T14:58:07.955Z,3.17
2024-05-09T15:00:40.360Z,3.58
2024-05-09T15:03:13.193Z,3.00
2024-05-09T15:05:40.780Z,3.20
2024-05-09T15:08:09.034Z,3.40
2024-05-09T15:10:37.331Z,3.50
2024-05-09T15:13:07.233Z,3.53
2024-05-09T15:15:36.624Z,3.40
2024-05-09T15:18:04.744Z,3.50
2024-05-09T15:20:36.871Z,2.97
2024-05-09T15:23:06.854Z,3.00
2024-05-09T15:25:36.310Z,3.47
2024-05-09T15:28:07.636Z,3.17
2024-05-09T15:30:35.649Z,3.55
2024-05-09T15:33:04.549Z,3.35
2024-05-09T15:35:35.483Z,3.10
2024-05-09T15:38:04.411Z,3.58
2024-05-09T15:40:39.041Z,3.42
2024-05-09T15:43:10.631Z,3.50
2024-05-09T15:45:39.555Z,3.08
2024-05-09T15:48:09.169Z,2.70
2024-05-09T15:50:41.615Z,3.00
2024-05-09T15:53:11.392Z,3.13
2024-05-09T15:55:39.577Z,3.15
2024-05-09T15:58:07.720Z,3.20
2024-05-09T16:00:39.557Z,3.00
2024-05-09T16:03:10.250Z,3.40
2024-05-09T16:05:41.164Z,3.75
2024-05-09T16:08:09.390Z,3.50
2024-05-09T16:10:42.399Z,3.15
2024-05-09T16:13:11.805Z,3.10
2024-05-09T16:15:39.197Z,3.20
2024-05-09T16:18:07.450Z,3.60
2024-05-09T16:20:39.822Z,3.67
2024-05-09T16:23:12.738Z,3.30
2024-05-09T16:25:45.142Z,3.30
2024-05-09T16:28:13.095Z,3.42
2024-05-09T16:30:40.679Z,3.00
2024-05-09T16:33:09.002Z,3.03
2024-05-09T16:35:37.171Z,3.28
2024-05-09T16:38:06.124Z,2.90
2024-05-09T16:40:39.960Z,2.92
2024-05-09T16:43:09.211Z,3.78
2024-05-09T16:45:38.049Z,3.45
2024-05-09T16:48:07.111Z,3.08
2024-05-09T16:50:35.784Z,3.35
2024-05-09T16:53:05.360Z,2.90
2024-05-09T16:55:36.450Z,3.45
2024-05-09T16:58:05.206Z,3.20
2024-05-09T17:00:40.286Z,3.45
2024-05-09T17:03:13.488Z,3.13
2024-05-09T17:05:42.763Z,3.10
2024-05-09T17:08:10.527Z,3.30
2024-05-09T17:10:40.656Z,3.30
2024-05-09T17:13:08.715Z,2.60
2024-05-09T17:15:37.318Z,3.03
2024-05-09T17:18:07.264Z,3.22
2024-05-09T17:20:37.006Z,2.97
2024-05-09T17:23:15.280Z,3.25
2024-05-09T17:25:45.306Z,3.40
2024-05-09T17:28:12.869Z,3.50
2024-05-09T17:30:42.125Z,3.67
2024-05-09T17:33:11.612Z,3.03
2024-05-09T17:35:40.023Z,3.33
2024-05-09T17:38:07.709Z,3.40
2024-05-09T17:40:37.344Z,3.17
2024-05-09T17:43:10.475Z,3.00
2024-05-09T17:45:39.231Z,3.30
2024-05-09T17:48:09.850Z,3.28
2024-05-09T17:53:06.557Z,3.50
2024-05-09T17:55:34.822Z,2.95
2024-05-09T17:58:03.371Z,3.22
2024-05-09T18:00:39.150Z,3.08
2024-05-09T18:03:13.608Z,3.28
2024-05-09T18:05:42.873Z,3.13
2024-05-09T18:08:11.478Z,3.60
2024-05-09T18:10:40.664Z,3.60
2024-05-09T18:13:09.376Z,3.80
2024-05-09T18:15:40.133Z,3.42
2024-05-09T18:18:08.931Z,3.78
2024-05-09T18:20:42.867Z,3.53
2024-05-09T18:23:15.973Z,3.53
2024-05-09T18:25:45.040Z,3.70
2024-05-09T18:28:12.589Z,3.70
2024-05-09T18:30:43.159Z,4.20
2024-05-09T18:33:11.675Z,4.10
2024-05-09T18:35:41.231Z,4.28
2024-05-09T18:38:09.498Z,4.30
2024-05-09T18:40:38.804Z,4.15
2024-05-09T18:43:08.910Z,4.15
2024-05-09T18:45:37.475Z,4.32
2024-05-09T18:48:11.926Z,3.88
2024-05-09T18:50:41.020Z,4.18
2024-05-09T18:53:11.655Z,4.05
2024-05-09T18:55:40.155Z,3.85
2024-05-09T18:58:07.759Z,3.78
2024-05-09T19:00:38.464Z,4.00
2024-05-09T19:03:13.278Z,4.13
2024-05-09T19:05:43.219Z,3.80
2024-05-09T19:08:11.807Z,3.75
2024-05-09T19:10:39.442Z,3.90
2024-05-09T19:13:11.112Z,3.88
2024-05-09T19:15:41.089Z,4.22
2024-05-09T19:18:12.478Z,3.88
2024-05-09T19:20:40.158Z,4.00
2024-05-09T19:23:07.794Z,3.90
2024-05-09T19:25:35.665Z,3.65
2024-05-09T19:28:04.002Z,4.20
2024-05-09T19:30:38.613Z,3.60
2024-05-09T19:33:13.338Z,4.18
2024-05-09T19:35:41.873Z,4.00
2024-05-09T19:38:09.200Z,4.75
2024-05-09T19:40:36.733Z,3.97
2024-05-09T19:43:05.793Z,4.15
2024-05-09T19:45:34.931Z,4.88
2024-05-09T19:48:03.785Z,4.43
2024-05-09T19:50:41.311Z,4.50
2024-05-09T19:53:12.030Z,3.92
2024-05-09T19:55:40.215Z,4.07
2024-05-09T19:58:08.710Z,4.32
2024-05-09T20:00:40.060Z,4.35
2024-05-09T20:03:10.097Z,4.45
2024-05-09T20:05:42.135Z,4.60
2024-05-09T20:08:09.669Z,4.55
2024-05-09T20:10:37.543Z,4.25
2024-05-09T20:13:06.807Z,4.35
2024-05-09T20:15:36.883Z,4.25
2024-05-09T20:18:05.546Z,4.45
2024-05-09T20:20:39.307Z,4.18
2024-05-09T20:25:40.323Z,4.38
2024-05-09T20:28:08.153Z,4.53
2024-05-09T20:30:36.429Z,4.22
2024-05-09T20:33:07.311Z,4.38
2024-05-09T20:35:36.166Z,4.18
2024-05-09T20:38:04.417Z,4.30
2024-05-09T20:40:37.998Z,4.32
2024-05-09T20:43:08.551Z,4.93
2024-05-09T20:45:36.482Z,4.80
2024-05-09T20:48:05.110Z,4.53
2024-05-09T20:50:38.220Z,4.70
2024-05-09T20:53:09.354Z,4.78
2024-05-09T20:55:40.012Z,4.60
2024-05-09T20:58:08.104Z,4.95
2024-05-09T21:00:40.120Z,5.05
2024-05-09T21:03:11.611Z,5.53
2024-05-09T21:05:39.784Z,5.38
2024-05-09T21:08:07.940Z,5.95
2024-05-09T21:10:38.230Z,5.40
2024-05-09T21:13:06.758Z,5.35
2024-05-09T21:15:35.616Z,5.10
2024-05-09T21:18:04.295Z,5.53
2024-05-09T21:20:34.707Z,4.97
2024-05-09T21:25:30.619Z,5.18
2024-05-09T21:28:00.817Z,5.32
2024-05-09T21:33:11.244Z,5.18
2024-05-09T21:35:40.487Z,5.43
2024-05-09T21:38:08.069Z,6.43
2024-05-09T21:40:37.214Z,5.57
2024-05-09T21:43:08.200Z,5.38
2024-05-09T21:48:05.747Z,5.60
2024-05-09T21:50:39.551Z,5.18
2024-05-09T21:53:09.602Z,5.22
2024-05-09T21:55:36.935Z,5.07
2024-05-09T21:58:07.084Z,6.03
2024-05-09T22:00:38.240Z,5.85
2024-05-09T22:03:08.347Z,5.65
2024-05-09T22:05:37.432Z,5.60
2024-05-09T22:08:06.311Z,6.07
2024-05-09T22:10:36.112Z,5.65
2024-05-09T22:15:37.782Z,5.75
2024-05-09T22:18:08.061Z,5.53
2024-05-09T22:20:38.901Z,5.35
2024-05-09T22:23:07.823Z,5.93
2024-05-09T22:25:35.941Z,6.03
2024-05-09T22:28:04.288Z,5.47
2024-05-09T22:30:38.260Z,5.72
2024-05-09T22:33:09.392Z,5.35
2024-05-09T22:35:38.196Z,5.70
2024-05-09T22:38:06.092Z,5.82
2024-05-09T22:40:43.270Z,6.05
2024-05-09T22:43:22.335Z,5.80
2024-05-09T22:45:55.082Z,5.32
2024-05-09T22:48:24.014Z,5.65
2024-05-09T22:50:51.943Z,5.25
2024-05-09T22:53:21.593Z,5.38
2024-05-09T22:55:48.895Z,5.03
2024-05-09T22:58:16.651Z,6.32
2024-05-09T23:00:44.275Z,6.43
2024-05-09T23:03:16.607Z,5.68
2024-05-09T23:05:44.021Z,5.80
2024-05-09T23:08:11.239Z,5.88
2024-05-09T23:10:38.706Z,6.28
2024-05-09T23:13:07.685Z,7.22
2024-05-09T23:15:36.587Z,6.60
2024-05-09T23:18:04.649Z,6.97
2024-05-09T23:20:38.521Z,6.78
2024-05-09T23:23:07.664Z,7.00
2024-05-09T23:25:35.160Z,7.20
2024-05-09T23:28:02.608Z,7.10
2024-05-09T23:30:37.440Z,7.15
2024-05-09T23:33:08.248Z,7.68
2024-05-09T23:35:38.478Z,7.57
2024-05-09T23:38:05.685Z,7.68
2024-05-09T23:40:39.180Z,7.93
2024-05-09T23:43:09.227Z,8.05
2024-05-09T23:45:37.034Z,7.30
2024-05-09T23:48:06.815Z,7.05
2024-05-09T23:50:37.524Z,7.25
2024-05-09T23:53:10.136Z,7.35
2024-05-09T23:55:38.895Z,6.80
2024-05-09T23:58:06.648Z,7.47
